Tioga, Illinois
Current Conditions -  °F | °C
As of 6:54 PM on Friday 26 Dec 2014 (Local Time) from KUIN Reporting Station
Overcast Overcast  
Wind Chill: 47°   Ceiling: 6000
Heat Index: 49°   Visibility: 10mi
Dew Point: 42°   Wind: 6mph
Humidity: 77%   Direction: 130°SE
Pressure: 29.96"   Gusts: NA
Location:  40.0927°N, 91.2943°W
Report Text: KUIN 270054Z AUTO 13005KT 10SM OVC060 09/06 A2996 RMK AO2 SLP147 T00940056
Loading
Personal Weather Stations






























Interactive Weather Map New forecast layout! Learn more

10-Day Weather Forecast

Advertisements
Track Severe Weather on mobile